sensor_id;sensor_type;location;lat;lon;timestamp;P1;durP1;ratioP1;P2;durP2;ratioP2
22268;SDS011;11303;50.772;19.670;2023-07-20T00:00:54;18.50;;;10.18;;
22268;SDS011;11303;50.772;19.670;2023-07-20T00:03:09;19.77;;;10.07;;
22268;SDS011;11303;50.772;19.670;2023-07-20T00:05:14;21.15;;;10.73;;
22268;SDS011;11303;50.772;19.670;2023-07-20T00:07:15;17.27;;;10.43;;
22268;SDS011;11303;50.772;19.670;2023-07-20T00:09:17;15.63;;;9.45;;
22268;SDS011;11303;50.772;19.670;2023-07-20T00:11:18;15.98;;;9.60;;
22268;SDS011;11303;50.772;19.670;2023-07-20T00:13:20;21.33;;;9.68;;
22268;SDS011;11303;50.772;19.670;2023-07-20T00:15:22;16.02;;;10.18;;
22268;SDS011;11303;50.772;19.670;2023-07-20T00:17:24;17.65;;;10.15;;
22268;SDS011;11303;50.772;19.670;2023-07-20T00:19:26;22.67;;;10.55;;
22268;SDS011;11303;50.772;19.670;2023-07-20T00:21:28;19.00;;;11.85;;
22268;SDS011;11303;50.772;19.670;2023-07-20T00:23:30;13.60;;;9.68;;
22268;SDS011;11303;50.772;19.670;2023-07-20T00:25:35;19.35;;;11.40;;
22268;SDS011;11303;50.772;19.670;2023-07-20T00:27:37;17.63;;;10.18;;
22268;SDS011;11303;50.772;19.670;2023-07-20T00:29:39;16.92;;;9.02;;
22268;SDS011;11303;50.772;19.670;2023-07-20T00:31:40;11.80;;;6.93;;
22268;SDS011;11303;50.772;19.670;2023-07-20T00:33:43;11.45;;;7.95;;
22268;SDS011;11303;50.772;19.670;2023-07-20T00:35:45;11.95;;;7.50;;
22268;SDS011;11303;50.772;19.670;2023-07-20T00:37:46;17.77;;;7.25;;
22268;SDS011;11303;50.772;19.670;2023-07-20T00:39:48;13.30;;;7.28;;
22268;SDS011;11303;50.772;19.670;2023-07-20T00:41:50;12.07;;;7.20;;
22268;SDS011;11303;50.772;19.670;2023-07-20T00:43:51;9.80;;;6.68;;
22268;SDS011;11303;50.772;19.670;2023-07-20T00:45:53;9.75;;;6.35;;
22268;SDS011;11303;50.772;19.670;2023-07-20T00:47:55;8.73;;;6.28;;
22268;SDS011;11303;50.772;19.670;2023-07-20T00:49:58;11.15;;;5.78;;
22268;SDS011;11303;50.772;19.670;2023-07-20T00:52:00;9.05;;;5.90;;
22268;SDS011;11303;50.772;19.670;2023-07-20T00:54:04;13.38;;;5.85;;
22268;SDS011;11303;50.772;19.670;2023-07-20T00:56:06;12.48;;;6.60;;
22268;SDS011;11303;50.772;19.670;2023-07-20T00:58:10;11.88;;;6.55;;
22268;SDS011;11303;50.772;19.670;2023-07-20T01:00:12;13.70;;;6.97;;
22268;SDS011;11303;50.772;19.670;2023-07-20T01:02:14;10.60;;;6.75;;
22268;SDS011;11303;50.772;19.670;2023-07-20T01:04:16;9.80;;;6.70;;
22268;SDS011;11303;50.772;19.670;2023-07-20T01:10:46;10.68;;;7.00;;
22268;SDS011;11303;50.772;19.670;2023-07-20T01:12:55;11.63;;;7.10;;
22268;SDS011;11303;50.772;19.670;2023-07-20T01:14:57;11.25;;;6.00;;
22268;SDS011;11303;50.772;19.670;2023-07-20T01:16:59;7.63;;;5.68;;
22268;SDS011;11303;50.772;19.670;2023-07-20T01:19:01;13.40;;;6.22;;
22268;SDS011;11303;50.772;19.670;2023-07-20T01:21:07;7.95;;;5.75;;
22268;SDS011;11303;50.772;19.670;2023-07-20T01:23:50;11.57;;;5.70;;
22268;SDS011;11303;50.772;19.670;2023-07-20T01:33:03;7.88;;;5.05;;
22268;SDS011;11303;50.772;19.670;2023-07-20T01:35:04;10.20;;;5.63;;
22268;SDS011;11303;50.772;19.670;2023-07-20T01:37:07;9.05;;;5.20;;
22268;SDS011;11303;50.772;19.670;2023-07-20T01:39:09;11.00;;;4.88;;
22268;SDS011;11303;50.772;19.670;2023-07-20T01:41:12;12.77;;;5.15;;
22268;SDS011;11303;50.772;19.670;2023-07-20T01:43:14;9.00;;;4.55;;
22268;SDS011;11303;50.772;19.670;2023-07-20T01:45:17;7.63;;;4.53;;
22268;SDS011;11303;50.772;19.670;2023-07-20T01:47:19;12.18;;;4.50;;
22268;SDS011;11303;50.772;19.670;2023-07-20T01:49:20;7.32;;;4.07;;
22268;SDS011;11303;50.772;19.670;2023-07-20T01:51:22;10.82;;;4.60;;
22268;SDS011;11303;50.772;19.670;2023-07-20T01:53:24;9.43;;;4.53;;
22268;SDS011;11303;50.772;19.670;2023-07-20T01:55:25;7.95;;;4.53;;
22268;SDS011;11303;50.772;19.670;2023-07-20T01:57:27;6.38;;;4.07;;
22268;SDS011;11303;50.772;19.670;2023-07-20T01:59:29;12.35;;;4.93;;
22268;SDS011;11303;50.772;19.670;2023-07-20T02:01:30;6.47;;;3.95;;
22268;SDS011;11303;50.772;19.670;2023-07-20T02:03:32;8.43;;;4.80;;
22268;SDS011;11303;50.772;19.670;2023-07-20T02:05:34;12.90;;;4.70;;
22268;SDS011;11303;50.772;19.670;2023-07-20T02:07:35;6.45;;;4.25;;
22268;SDS011;11303;50.772;19.670;2023-07-20T02:09:37;11.55;;;5.10;;
22268;SDS011;11303;50.772;19.670;2023-07-20T02:11:39;9.30;;;4.88;;
22268;SDS011;11303;50.772;19.670;2023-07-20T02:13:40;10.95;;;5.40;;
22268;SDS011;11303;50.772;19.670;2023-07-20T02:15:42;10.18;;;4.80;;
22268;SDS011;11303;50.772;19.670;2023-07-20T02:17:44;10.02;;;4.32;;
22268;SDS011;11303;50.772;19.670;2023-07-20T02:19:46;7.50;;;4.68;;
22268;SDS011;11303;50.772;19.670;2023-07-20T02:21:50;8.88;;;4.80;;
22268;SDS011;11303;50.772;19.670;2023-07-20T02:23:52;12.93;;;4.80;;
22268;SDS011;11303;50.772;19.670;2023-07-20T02:25:54;8.65;;;5.30;;
22268;SDS011;11303;50.772;19.670;2023-07-20T02:27:56;8.50;;;5.68;;
22268;SDS011;11303;50.772;19.670;2023-07-20T02:29:57;9.88;;;5.13;;
22268;SDS011;11303;50.772;19.670;2023-07-20T02:31:59;9.15;;;5.78;;
22268;SDS011;11303;50.772;19.670;2023-07-20T02:34:01;11.50;;;5.95;;
22268;SDS011;11303;50.772;19.670;2023-07-20T02:36:02;14.80;;;6.28;;
22268;SDS011;11303;50.772;19.670;2023-07-20T02:38:04;13.25;;;6.57;;
22268;SDS011;11303;50.772;19.670;2023-07-20T02:40:06;11.00;;;6.10;;
22268;SDS011;11303;50.772;19.670;2023-07-20T02:42:08;16.13;;;6.68;;
22268;SDS011;11303;50.772;19.670;2023-07-20T02:44:10;15.38;;;6.75;;
22268;SDS011;11303;50.772;19.670;2023-07-20T02:46:11;9.80;;;4.95;;
22268;SDS011;11303;50.772;19.670;2023-07-20T02:48:13;12.10;;;5.40;;
22268;SDS011;11303;50.772;19.670;2023-07-20T02:50:15;9.45;;;4.95;;
22268;SDS011;11303;50.772;19.670;2023-07-20T02:52:17;15.23;;;5.50;;
22268;SDS011;11303;50.772;19.670;2023-07-20T02:54:22;11.13;;;4.72;;
22268;SDS011;11303;50.772;19.670;2023-07-20T02:56:24;11.90;;;5.30;;
22268;SDS011;11303;50.772;19.670;2023-07-20T02:58:26;11.10;;;5.40;;
22268;SDS011;11303;50.772;19.670;2023-07-20T03:00:27;11.23;;;5.45;;
22268;SDS011;11303;50.772;19.670;2023-07-20T03:02:29;11.45;;;5.10;;
22268;SDS011;11303;50.772;19.670;2023-07-20T03:04:31;12.50;;;5.45;;
22268;SDS011;11303;50.772;19.670;2023-07-20T03:06:33;11.77;;;5.38;;
22268;SDS011;11303;50.772;19.670;2023-07-20T03:08:37;11.73;;;5.53;;
22268;SDS011;11303;50.772;19.670;2023-07-20T03:10:39;22.13;;;5.38;;
22268;SDS011;11303;50.772;19.670;2023-07-20T03:12:42;11.50;;;5.28;;
22268;SDS011;11303;50.772;19.670;2023-07-20T03:14:43;13.50;;;5.90;;
22268;SDS011;11303;50.772;19.670;2023-07-20T03:16:45;10.82;;;6.15;;
22268;SDS011;11303;50.772;19.670;2023-07-20T03:18:47;11.57;;;5.95;;
22268;SDS011;11303;50.772;19.670;2023-07-20T03:20:48;13.45;;;7.05;;
22268;SDS011;11303;50.772;19.670;2023-07-20T03:22:50;20.77;;;7.13;;
22268;SDS011;11303;50.772;19.670;2023-07-20T03:24:52;11.27;;;6.53;;
22268;SDS011;11303;50.772;19.670;2023-07-20T03:26:53;12.82;;;7.10;;
22268;SDS011;11303;50.772;19.670;2023-07-20T03:28:55;9.55;;;5.90;;
22268;SDS011;11303;50.772;19.670;2023-07-20T03:30:57;9.77;;;6.18;;
22268;SDS011;11303;50.772;19.670;2023-07-20T03:32:59;11.90;;;6.20;;
22268;SDS011;11303;50.772;19.670;2023-07-20T03:35:01;8.93;;;4.68;;
22268;SDS011;11303;50.772;19.670;2023-07-20T03:37:03;10.57;;;5.80;;
22268;SDS011;11303;50.772;19.670;2023-07-20T03:39:06;10.07;;;5.60;;
22268;SDS011;11303;50.772;19.670;2023-07-20T03:41:07;10.93;;;4.75;;
22268;SDS011;11303;50.772;19.670;2023-07-20T03:43:10;9.88;;;5.15;;
22268;SDS011;11303;50.772;19.670;2023-07-20T03:45:12;12.57;;;5.18;;
22268;SDS011;11303;50.772;19.670;2023-07-20T03:47:13;11.07;;;5.28;;
22268;SDS011;11303;50.772;19.670;2023-07-20T03:49:15;11.85;;;5.95;;
22268;SDS011;11303;50.772;19.670;2023-07-20T03:51:17;13.57;;;5.70;;
22268;SDS011;11303;50.772;19.670;2023-07-20T03:53:18;9.57;;;6.32;;
22268;SDS011;11303;50.772;19.670;2023-07-20T03:55:20;9.07;;;5.25;;
22268;SDS011;11303;50.772;19.670;2023-07-20T03:57:22;9.63;;;5.45;;
22268;SDS011;11303;50.772;19.670;2023-07-20T03:59:23;12.25;;;5.47;;
22268;SDS011;11303;50.772;19.670;2023-07-20T04:01:25;9.63;;;5.57;;
22268;SDS011;11303;50.772;19.670;2023-07-20T04:03:26;11.27;;;5.72;;
22268;SDS011;11303;50.772;19.670;2023-07-20T04:05:28;9.25;;;5.65;;
22268;SDS011;11303;50.772;19.670;2023-07-20T04:07:30;11.50;;;5.70;;
22268;SDS011;11303;50.772;19.670;2023-07-20T04:09:33;10.15;;;6.00;;
22268;SDS011;11303;50.772;19.670;2023-07-20T04:11:34;13.73;;;6.00;;
22268;SDS011;11303;50.772;19.670;2023-07-20T04:13:36;10.23;;;5.32;;
22268;SDS011;11303;50.772;19.670;2023-07-20T04:15:38;11.95;;;5.50;;
22268;SDS011;11303;50.772;19.670;2023-07-20T04:17:40;11.02;;;5.82;;
22268;SDS011;11303;50.772;19.670;2023-07-20T04:19:42;10.23;;;5.75;;
22268;SDS011;11303;50.772;19.670;2023-07-20T04:21:44;10.75;;;5.68;;
22268;SDS011;11303;50.772;19.670;2023-07-20T04:23:45;9.15;;;5.40;;
22268;SDS011;11303;50.772;19.670;2023-07-20T04:25:47;9.10;;;5.13;;
22268;SDS011;11303;50.772;19.670;2023-07-20T04:27:48;9.55;;;4.65;;
22268;SDS011;11303;50.772;19.670;2023-07-20T04:29:50;12.88;;;6.40;;
22268;SDS011;11303;50.772;19.670;2023-07-20T04:31:52;13.95;;;7.68;;
22268;SDS011;11303;50.772;19.670;2023-07-20T04:33:53;12.73;;;7.18;;
22268;SDS011;11303;50.772;19.670;2023-07-20T04:35:55;12.57;;;8.02;;
22268;SDS011;11303;50.772;19.670;2023-07-20T04:37:57;20.42;;;10.10;;
22268;SDS011;11303;50.772;19.670;2023-07-20T04:39:58;14.57;;;9.48;;
22268;SDS011;11303;50.772;19.670;2023-07-20T04:42:00;15.93;;;10.10;;
22268;SDS011;11303;50.772;19.670;2023-07-20T04:44:01;18.40;;;9.98;;
22268;SDS011;11303;50.772;19.670;2023-07-20T04:46:03;11.73;;;9.10;;
22268;SDS011;11303;50.772;19.670;2023-07-20T04:48:07;15.98;;;9.95;;
22268;SDS011;11303;50.772;19.670;2023-07-20T04:50:12;19.13;;;9.85;;
22268;SDS011;11303;50.772;19.670;2023-07-20T04:52:14;18.40;;;10.00;;
22268;SDS011;11303;50.772;19.670;2023-07-20T04:54:16;20.25;;;9.70;;
22268;SDS011;11303;50.772;19.670;2023-07-20T04:56:18;16.20;;;10.07;;
22268;SDS011;11303;50.772;19.670;2023-07-20T04:58:20;21.30;;;12.15;;
22268;SDS011;11303;50.772;19.670;2023-07-20T05:00:23;18.50;;;11.10;;
22268;SDS011;11303;50.772;19.670;2023-07-20T05:02:25;16.15;;;11.20;;
22268;SDS011;11303;50.772;19.670;2023-07-20T05:04:27;15.77;;;10.48;;
22268;SDS011;11303;50.772;19.670;2023-07-20T05:06:38;16.98;;;9.70;;
22268;SDS011;11303;50.772;19.670;2023-07-20T05:08:40;17.95;;;8.75;;
22268;SDS011;11303;50.772;19.670;2023-07-20T05:10:42;14.55;;;7.25;;
22268;SDS011;11303;50.772;19.670;2023-07-20T05:12:44;13.00;;;8.43;;
22268;SDS011;11303;50.772;19.670;2023-07-20T05:14:46;20.75;;;14.05;;
22268;SDS011;11303;50.772;19.670;2023-07-20T05:16:48;12.10;;;8.30;;
22268;SDS011;11303;50.772;19.670;2023-07-20T05:18:52;9.15;;;5.95;;
22268;SDS011;11303;50.772;19.670;2023-07-20T05:20:53;9.40;;;5.95;;
22268;SDS011;11303;50.772;19.670;2023-07-20T05:22:56;10.65;;;6.43;;
22268;SDS011;11303;50.772;19.670;2023-07-20T05:24:58;14.20;;;7.93;;
22268;SDS011;11303;50.772;19.670;2023-07-20T05:27:00;12.13;;;7.95;;
22268;SDS011;11303;50.772;19.670;2023-07-20T05:29:01;17.08;;;8.05;;
22268;SDS011;11303;50.772;19.670;2023-07-20T05:31:03;11.30;;;6.15;;
22268;SDS011;11303;50.772;19.670;2023-07-20T05:33:04;7.90;;;5.65;;
22268;SDS011;11303;50.772;19.670;2023-07-20T05:35:06;11.40;;;5.40;;
22268;SDS011;11303;50.772;19.670;2023-07-20T05:37:09;8.18;;;4.97;;
22268;SDS011;11303;50.772;19.670;2023-07-20T05:39:16;6.90;;;4.85;;
22268;SDS011;11303;50.772;19.670;2023-07-20T05:41:18;7.32;;;5.20;;
22268;SDS011;11303;50.772;19.670;2023-07-20T05:43:20;8.52;;;5.20;;
22268;SDS011;11303;50.772;19.670;2023-07-20T05:45:22;9.75;;;5.65;;
22268;SDS011;11303;50.772;19.670;2023-07-20T05:47:23;14.35;;;5.20;;
22268;SDS011;11303;50.772;19.670;2023-07-20T05:49:25;9.27;;;4.90;;
22268;SDS011;11303;50.772;19.670;2023-07-20T05:51:27;5.72;;;4.95;;
22268;SDS011;11303;50.772;19.670;2023-07-20T05:53:29;13.77;;;5.93;;
22268;SDS011;11303;50.772;19.670;2023-07-20T05:55:31;9.57;;;7.75;;
22268;SDS011;11303;50.772;19.670;2023-07-20T05:57:32;7.55;;;5.10;;
22268;SDS011;11303;50.772;19.670;2023-07-20T05:59:34;8.30;;;4.97;;
22268;SDS011;11303;50.772;19.670;2023-07-20T06:01:36;7.20;;;4.70;;
22268;SDS011;11303;50.772;19.670;2023-07-20T06:03:38;8.63;;;5.25;;
22268;SDS011;11303;50.772;19.670;2023-07-20T06:05:40;7.75;;;5.22;;
22268;SDS011;11303;50.772;19.670;2023-07-20T06:07:42;11.35;;;5.35;;
22268;SDS011;11303;50.772;19.670;2023-07-20T06:09:43;16.92;;;6.00;;
22268;SDS011;11303;50.772;19.670;2023-07-20T06:11:45;8.38;;;4.65;;
22268;SDS011;11303;50.772;19.670;2023-07-20T06:13:47;5.97;;;4.72;;
22268;SDS011;11303;50.772;19.670;2023-07-20T06:15:48;6.75;;;4.50;;
22268;SDS011;11303;50.772;19.670;2023-07-20T06:17:50;6.05;;;4.35;;
22268;SDS011;11303;50.772;19.670;2023-07-20T06:19:52;7.63;;;4.57;;
22268;SDS011;11303;50.772;19.670;2023-07-20T06:21:53;7.88;;;4.18;;
22268;SDS011;11303;50.772;19.670;2023-07-20T06:23:55;5.78;;;3.65;;
22268;SDS011;11303;50.772;19.670;2023-07-20T06:25:57;7.10;;;3.47;;
22268;SDS011;11303;50.772;19.670;2023-07-20T06:27:58;5.15;;;2.90;;
22268;SDS011;11303;50.772;19.670;2023-07-20T06:30:00;3.67;;;2.80;;
22268;SDS011;11303;50.772;19.670;2023-07-20T06:32:02;4.28;;;2.30;;
22268;SDS011;11303;50.772;19.670;2023-07-20T06:34:03;3.45;;;2.35;;
22268;SDS011;11303;50.772;19.670;2023-07-20T06:36:05;4.13;;;2.28;;
22268;SDS011;11303;50.772;19.670;2023-07-20T06:38:07;4.80;;;2.35;;
22268;SDS011;11303;50.772;19.670;2023-07-20T06:40:12;2.75;;;2.00;;
22268;SDS011;11303;50.772;19.670;2023-07-20T06:42:17;3.63;;;2.20;;
22268;SDS011;11303;50.772;19.670;2023-07-20T06:44:18;2.85;;;1.77;;
22268;SDS011;11303;50.772;19.670;2023-07-20T06:46:20;2.58;;;1.73;;
22268;SDS011;11303;50.772;19.670;2023-07-20T06:48:22;3.05;;;1.80;;
22268;SDS011;11303;50.772;19.670;2023-07-20T06:50:24;3.58;;;1.90;;
22268;SDS011;11303;50.772;19.670;2023-07-20T06:52:28;3.65;;;2.10;;
22268;SDS011;11303;50.772;19.670;2023-07-20T06:54:30;2.80;;;1.80;;
22268;SDS011;11303;50.772;19.670;2023-07-20T06:56:36;2.92;;;2.10;;
22268;SDS011;11303;50.772;19.670;2023-07-20T06:58:38;4.68;;;2.03;;
22268;SDS011;11303;50.772;19.670;2023-07-20T07:00:40;3.05;;;1.85;;
22268;SDS011;11303;50.772;19.670;2023-07-20T07:02:41;2.75;;;2.00;;
22268;SDS011;11303;50.772;19.670;2023-07-20T07:04:44;3.40;;;2.05;;
22268;SDS011;11303;50.772;19.670;2023-07-20T07:06:46;2.90;;;1.90;;
22268;SDS011;11303;50.772;19.670;2023-07-20T07:08:49;2.65;;;2.08;;
22268;SDS011;11303;50.772;19.670;2023-07-20T07:10:51;3.65;;;2.28;;
22268;SDS011;11303;50.772;19.670;2023-07-20T07:12:53;3.40;;;2.20;;
22268;SDS011;11303;50.772;19.670;2023-07-20T07:14:55;3.25;;;2.22;;
22268;SDS011;11303;50.772;19.670;2023-07-20T07:16:57;2.53;;;1.83;;
22268;SDS011;11303;50.772;19.670;2023-07-20T07:18:59;2.92;;;2.00;;
22268;SDS011;11303;50.772;19.670;2023-07-20T07:21:02;3.80;;;2.00;;
22268;SDS011;11303;50.772;19.670;2023-07-20T07:23:04;3.35;;;2.20;;
22268;SDS011;11303;50.772;19.670;2023-07-20T07:25:06;3.60;;;2.25;;
22268;SDS011;11303;50.772;19.670;2023-07-20T07:27:09;3.80;;;2.63;;
22268;SDS011;11303;50.772;19.670;2023-07-20T07:29:10;6.35;;;2.90;;
22268;SDS011;11303;50.772;19.670;2023-07-20T07:31:12;4.63;;;2.80;;
22268;SDS011;11303;50.772;19.670;2023-07-20T07:33:14;5.25;;;2.85;;
22268;SDS011;11303;50.772;19.670;2023-07-20T07:35:15;4.35;;;2.75;;
22268;SDS011;11303;50.772;19.670;2023-07-20T07:37:17;3.17;;;2.30;;
22268;SDS011;11303;50.772;19.670;2023-07-20T07:39:20;3.13;;;2.47;;
22268;SDS011;11303;50.772;19.670;2023-07-20T07:41:25;5.25;;;2.65;;
22268;SDS011;11303;50.772;19.670;2023-07-20T07:43:27;5.88;;;2.25;;
22268;SDS011;11303;50.772;19.670;2023-07-20T07:45:30;3.17;;;2.30;;
22268;SDS011;11303;50.772;19.670;2023-07-20T07:47:31;3.10;;;2.38;;
22268;SDS011;11303;50.772;19.670;2023-07-20T07:49:33;4.03;;;2.30;;
22268;SDS011;11303;50.772;19.670;2023-07-20T07:51:35;5.20;;;2.55;;
22268;SDS011;11303;50.772;19.670;2023-07-20T07:53:37;3.30;;;2.47;;
22268;SDS011;11303;50.772;19.670;2023-07-20T07:55:40;2.97;;;2.42;;
22268;SDS011;11303;50.772;19.670;2023-07-20T07:57:42;4.53;;;2.10;;
22268;SDS011;11303;50.772;19.670;2023-07-20T07:59:44;2.80;;;2.13;;
22268;SDS011;11303;50.772;19.670;2023-07-20T08:01:45;2.20;;;1.90;;
22268;SDS011;11303;50.772;19.670;2023-07-20T08:03:47;3.58;;;2.00;;
22268;SDS011;11303;50.772;19.670;2023-07-20T08:05:49;3.97;;;2.10;;
22268;SDS011;11303;50.772;19.670;2023-07-20T08:07:51;3.65;;;1.83;;
22268;SDS011;11303;50.772;19.670;2023-07-20T08:09:53;2.85;;;2.00;;
22268;SDS011;11303;50.772;19.670;2023-07-20T08:11:55;4.38;;;2.10;;
22268;SDS011;11303;50.772;19.670;2023-07-20T08:13:56;2.70;;;1.65;;
22268;SDS011;11303;50.772;19.670;2023-07-20T08:15:58;8.35;;;4.55;;
22268;SDS011;11303;50.772;19.670;2023-07-20T08:18:00;5.05;;;3.50;;
22268;SDS011;11303;50.772;19.670;2023-07-20T08:20:02;3.67;;;2.38;;
22268;SDS011;11303;50.772;19.670;2023-07-20T08:22:04;4.32;;;2.60;;
22268;SDS011;11303;50.772;19.670;2023-07-20T08:24:06;6.85;;;2.95;;
22268;SDS011;11303;50.772;19.670;2023-07-20T08:26:08;4.13;;;2.90;;
22268;SDS011;11303;50.772;19.670;2023-07-20T08:28:15;4.40;;;2.55;;
22268;SDS011;11303;50.772;19.670;2023-07-20T08:30:20;3.17;;;2.20;;
22268;SDS011;11303;50.772;19.670;2023-07-20T08:32:22;2.97;;;2.30;;
22268;SDS011;11303;50.772;19.670;2023-07-20T08:34:24;3.88;;;2.92;;
22268;SDS011;11303;50.772;19.670;2023-07-20T08:36:32;8.20;;;2.67;;
22268;SDS011;11303;50.772;19.670;2023-07-20T08:38:34;3.05;;;2.03;;
22268;SDS011;11303;50.772;19.670;2023-07-20T08:40:42;4.55;;;2.30;;
22268;SDS011;11303;50.772;19.670;2023-07-20T08:42:44;3.17;;;2.35;;
22268;SDS011;11303;50.772;19.670;2023-07-20T08:44:47;4.57;;;2.40;;
22268;SDS011;11303;50.772;19.670;2023-07-20T08:46:50;7.55;;;2.30;;
22268;SDS011;11303;50.772;19.670;2023-07-20T08:48:53;3.67;;;2.60;;
22268;SDS011;11303;50.772;19.670;2023-07-20T08:50:57;4.55;;;2.28;;
22268;SDS011;11303;50.772;19.670;2023-07-20T08:53:02;3.42;;;2.30;;
22268;SDS011;11303;50.772;19.670;2023-07-20T08:55:04;3.47;;;2.00;;
22268;SDS011;11303;50.772;19.670;2023-07-20T08:57:06;3.40;;;2.33;;
22268;SDS011;11303;50.772;19.670;2023-07-20T08:59:13;2.78;;;2.05;;
22268;SDS011;11303;50.772;19.670;2023-07-20T09:01:18;6.75;;;2.40;;
22268;SDS011;11303;50.772;19.670;2023-07-20T09:03:21;4.18;;;2.30;;
22268;SDS011;11303;50.772;19.670;2023-07-20T09:05:23;10.73;;;2.35;;
22268;SDS011;11303;50.772;19.670;2023-07-20T09:07:28;4.22;;;2.83;;
22268;SDS011;11303;50.772;19.670;2023-07-20T09:09:30;3.08;;;2.10;;
22268;SDS011;11303;50.772;19.670;2023-07-20T09:11:32;3.63;;;2.10;;
22268;SDS011;11303;50.772;19.670;2023-07-20T09:13:33;6.28;;;2.55;;
22268;SDS011;11303;50.772;19.670;2023-07-20T09:15:36;3.55;;;2.20;;
22268;SDS011;11303;50.772;19.670;2023-07-20T09:17:37;3.25;;;2.45;;
22268;SDS011;11303;50.772;19.670;2023-07-20T09:19:45;6.55;;;2.35;;
22268;SDS011;11303;50.772;19.670;2023-07-20T09:21:51;3.45;;;2.50;;
22268;SDS011;11303;50.772;19.670;2023-07-20T09:23:53;5.00;;;3.10;;
22268;SDS011;11303;50.772;19.670;2023-07-20T09:25:58;4.30;;;3.05;;
22268;SDS011;11303;50.772;19.670;2023-07-20T09:28:02;8.40;;;5.35;;
22268;SDS011;11303;50.772;19.670;2023-07-20T09:30:06;9.13;;;6.18;;
22268;SDS011;11303;50.772;19.670;2023-07-20T09:32:09;4.75;;;3.50;;
22268;SDS011;11303;50.772;19.670;2023-07-20T09:34:25;6.82;;;2.72;;
22268;SDS011;11303;50.772;19.670;2023-07-20T09:36:31;5.03;;;2.42;;
22268;SDS011;11303;50.772;19.670;2023-07-20T09:38:38;2.55;;;2.08;;
22268;SDS011;11303;50.772;19.670;2023-07-20T09:40:44;3.55;;;2.20;;
22268;SDS011;11303;50.772;19.670;2023-07-20T09:42:48;5.47;;;2.17;;
22268;SDS011;11303;50.772;19.670;2023-07-20T09:44:57;5.25;;;1.95;;
22268;SDS011;11303;50.772;19.670;2023-07-20T09:46:59;2.33;;;1.88;;
22268;SDS011;11303;50.772;19.670;2023-07-20T09:49:00;2.33;;;2.13;;
22268;SDS011;11303;50.772;19.670;2023-07-20T09:51:05;5.10;;;2.13;;
22268;SDS011;11303;50.772;19.670;2023-07-20T09:53:11;3.30;;;2.08;;
22268;SDS011;11303;50.772;19.670;2023-07-20T09:55:16;4.13;;;1.80;;
22268;SDS011;11303;50.772;19.670;2023-07-20T09:57:18;2.20;;;2.00;;
22268;SDS011;11303;50.772;19.670;2023-07-20T09:59:20;2.42;;;1.90;;
22268;SDS011;11303;50.772;19.670;2023-07-20T10:01:22;5.43;;;2.50;;
22268;SDS011;11303;50.772;19.670;2023-07-20T10:03:28;5.50;;;2.25;;
22268;SDS011;11303;50.772;19.670;2023-07-20T10:05:36;2.95;;;2.20;;
22268;SDS011;11303;50.772;19.670;2023-07-20T10:07:50;6.70;;;2.45;;
22268;SDS011;11303;50.772;19.670;2023-07-20T10:10:13;4.28;;;2.30;;
22268;SDS011;11303;50.772;19.670;2023-07-20T10:12:16;4.50;;;2.70;;
22268;SDS011;11303;50.772;19.670;2023-07-20T10:14:19;4.78;;;2.10;;
22268;SDS011;11303;50.772;19.670;2023-07-20T10:16:22;5.88;;;2.83;;
22268;SDS011;11303;50.772;19.670;2023-07-20T10:20:52;6.95;;;2.50;;
22268;SDS011;11303;50.772;19.670;2023-07-20T10:22:58;3.20;;;2.20;;
22268;SDS011;11303;50.772;19.670;2023-07-20T10:25:01;2.63;;;1.75;;
22268;SDS011;11303;50.772;19.670;2023-07-20T10:27:05;3.00;;;2.00;;
22268;SDS011;11303;50.772;19.670;2023-07-20T10:29:07;5.78;;;2.17;;
22268;SDS011;11303;50.772;19.670;2023-07-20T10:31:10;3.50;;;2.15;;
22268;SDS011;11303;50.772;19.670;2023-07-20T10:33:14;3.15;;;2.00;;
22268;SDS011;11303;50.772;19.670;2023-07-20T10:35:18;4.63;;;1.85;;
22268;SDS011;11303;50.772;19.670;2023-07-20T10:39:47;3.47;;;1.85;;
22268;SDS011;11303;50.772;19.670;2023-07-20T10:41:49;2.63;;;2.00;;
22268;SDS011;11303;50.772;19.670;2023-07-20T10:44:03;4.53;;;2.03;;
22268;SDS011;11303;50.772;19.670;2023-07-20T10:46:06;3.25;;;2.10;;
22268;SDS011;11303;50.772;19.670;2023-07-20T10:48:18;2.67;;;2.15;;
22268;SDS011;11303;50.772;19.670;2023-07-20T10:50:22;2.67;;;2.03;;
22268;SDS011;11303;50.772;19.670;2023-07-20T10:52:24;2.65;;;1.83;;
22268;SDS011;11303;50.772;19.670;2023-07-20T10:56:27;2.42;;;1.85;;
22268;SDS011;11303;50.772;19.670;2023-07-20T10:58:32;3.45;;;1.98;;
22268;SDS011;11303;50.772;19.670;2023-07-20T11:00:35;2.88;;;2.03;;
22268;SDS011;11303;50.772;19.670;2023-07-20T11:04:51;3.63;;;2.33;;
22268;SDS011;11303;50.772;19.670;2023-07-20T11:06:55;3.30;;;2.47;;
22268;SDS011;11303;50.772;19.670;2023-07-20T11:09:07;3.80;;;2.40;;
22268;SDS011;11303;50.772;19.670;2023-07-20T11:11:23;5.47;;;2.30;;
22268;SDS011;11303;50.772;19.670;2023-07-20T11:15:31;4.97;;;2.00;;
22268;SDS011;11303;50.772;19.670;2023-07-20T11:17:48;5.30;;;2.10;;
22268;SDS011;11303;50.772;19.670;2023-07-20T11:19:57;2.42;;;1.75;;
22268;SDS011;11303;50.772;19.670;2023-07-20T11:22:05;2.67;;;1.70;;
22268;SDS011;11303;50.772;19.670;2023-07-20T11:24:09;1.80;;;1.67;;
22268;SDS011;11303;50.772;19.670;2023-07-20T11:26:12;3.13;;;1.70;;
22268;SDS011;11303;50.772;19.670;2023-07-20T11:28:14;3.00;;;1.77;;
22268;SDS011;11303;50.772;19.670;2023-07-20T11:30:16;2.22;;;1.92;;
22268;SDS011;11303;50.772;19.670;2023-07-20T11:32:21;7.88;;;2.08;;
22268;SDS011;11303;50.772;19.670;2023-07-20T11:34:26;4.93;;;1.90;;
22268;SDS011;11303;50.772;19.670;2023-07-20T11:36:29;3.67;;;2.28;;
22268;SDS011;11303;50.772;19.670;2023-07-20T11:38:33;3.25;;;1.90;;
22268;SDS011;11303;50.772;19.670;2023-07-20T11:40:35;2.88;;;2.20;;
22268;SDS011;11303;50.772;19.670;2023-07-20T11:42:37;3.67;;;2.00;;
22268;SDS011;11303;50.772;19.670;2023-07-20T11:44:41;4.65;;;2.50;;
22268;SDS011;11303;50.772;19.670;2023-07-20T11:46:43;4.63;;;2.33;;
22268;SDS011;11303;50.772;19.670;2023-07-20T11:48:45;4.25;;;2.40;;
22268;SDS011;11303;50.772;19.670;2023-07-20T11:50:47;7.25;;;2.28;;
22268;SDS011;11303;50.772;19.670;2023-07-20T11:52:49;4.80;;;2.25;;
22268;SDS011;11303;50.772;19.670;2023-07-20T11:54:51;5.35;;;2.20;;
22268;SDS011;11303;50.772;19.670;2023-07-20T11:56:54;2.90;;;1.90;;
22268;SDS011;11303;50.772;19.670;2023-07-20T11:58:57;4.32;;;2.00;;
22268;SDS011;11303;50.772;19.670;2023-07-20T12:01:04;2.83;;;2.20;;
22268;SDS011;11303;50.772;19.670;2023-07-20T12:03:06;3.70;;;2.10;;
22268;SDS011;11303;50.772;19.670;2023-07-20T12:05:09;5.30;;;2.22;;
22268;SDS011;11303;50.772;19.670;2023-07-20T12:07:15;5.15;;;2.30;;
22268;SDS011;11303;50.772;19.670;2023-07-20T12:09:17;9.80;;;3.08;;
22268;SDS011;11303;50.772;19.670;2023-07-20T12:11:31;7.50;;;2.58;;
22268;SDS011;11303;50.772;19.670;2023-07-20T12:13:38;10.30;;;2.97;;
22268;SDS011;11303;50.772;19.670;2023-07-20T12:15:45;0.00;;;0.00;;
22268;SDS011;11303;50.772;19.670;2023-07-20T12:17:51;0.00;;;0.00;;
22268;SDS011;11303;50.772;19.670;2023-07-20T12:22:00;0.20;;;0.20;;
22268;SDS011;11303;50.772;19.670;2023-07-20T12:24:02;0.00;;;0.00;;
22268;SDS011;11303;50.772;19.670;2023-07-20T12:26:08;0.00;;;0.00;;
22268;SDS011;11303;50.772;19.670;2023-07-20T12:28:11;0.00;;;0.00;;
22268;SDS011;11303;50.772;19.670;2023-07-20T12:30:15;0.00;;;0.00;;